Time;durP1;ratioP1;P1;durP2;ratioP2;P2;SDS_P1;SDS_P2;PMS_P1;PMS_P2;Temp;Humidity;BMP_temperature;BMP_pressure;BME280_temperature;BME280_humidity;BME280_pressure;Samples;Min_cycle;Max_cycle;Signal;HPM_P1;HPM_P2
2022/12/07 00:01:25;;;;;;;3.10;1.00;;;4.20;99.90;;;;;;5026478;28;20103;-70
2022/12/07 00:03:53;;;;;;;3.85;0.68;;;4.30;99.90;;;;;;5026325;28;20490;-70
2022/12/07 00:06:19;;;;;;;1.63;0.68;;;4.30;99.90;;;;;;5025574;28;20107;-70
2022/12/07 00:08:45;;;;;;;2.90;0.75;;;4.30;99.90;;;;;;5025206;28;20038;-70
2022/12/07 00:11:14;;;;;;;1.92;0.65;;;4.30;99.90;;;;;;5025933;28;20514;-69
2022/12/07 00:13:40;;;;;;;1.77;0.55;;;4.30;99.90;;;;;;5024187;28;20124;-70
2022/12/07 00:16:11;;;;;;;2.30;0.50;;;4.40;99.90;;;;;;5025502;28;20033;-70
2022/12/07 00:18:37;;;;;;;4.43;0.68;;;4.30;99.90;;;;;;5023768;28;20423;-70
2022/12/07 00:21:09;;;;;;;2.67;0.60;;;4.40;99.90;;;;;;5024359;28;20072;-71
2022/12/07 00:23:35;;;;;;;4.95;0.50;;;4.40;99.90;;;;;;5024550;28;20049;-70
2022/12/07 00:26:10;;;;;;;5.82;0.35;;;4.50;99.90;;;;;;5025949;28;20042;-70
2022/12/07 00:28:37;;;;;;;2.47;0.43;;;4.50;99.90;;;;;;5022546;28;20049;-70
2022/12/07 00:31:11;;;;;;;1.85;0.40;;;4.50;99.90;;;;;;5023854;28;20494;-70
2022/12/07 00:33:38;;;;;;;1.67;0.30;;;4.50;99.90;;;;;;5023217;28;20184;-70
2022/12/07 00:36:07;;;;;;;2.38;0.20;;;4.50;99.90;;;;;;5023907;28;20052;-70
2022/12/07 00:38:34;;;;;;;7.97;0.70;;;4.40;99.90;;;;;;5014963;28;20096;-71
2022/12/07 00:41:03;;;;;;;6.18;0.65;;;4.50;99.90;;;;;;5025467;28;20037;-71
2022/12/07 00:43:29;;;;;;;3.10;0.60;;;4.40;99.90;;;;;;5023150;28;20485;-70
2022/12/07 00:45:55;;;;;;;1.58;0.20;;;4.40;99.90;;;;;;5023986;28;20053;-71
2022/12/07 00:48:22;;;;;;;2.72;0.38;;;4.40;99.90;;;;;;5024251;28;20041;-70
2022/12/07 00:50:48;;;;;;;5.03;0.30;;;4.50;99.90;;;;;;5025230;28;20441;-70
2022/12/07 00:53:14;;;;;;;1.45;0.38;;;4.40;99.90;;;;;;5025219;28;20068;-70
2022/12/07 00:55:40;;;;;;;1.88;0.52;;;4.50;99.90;;;;;;5025325;28;20436;-71
2022/12/07 00:58:06;;;;;;;1.53;0.57;;;4.40;99.90;;;;;;5023280;28;20127;-70
2022/12/07 01:00:34;;;;;;;3.65;0.65;;;4.50;99.90;;;;;;5023675;28;20135;-70
2022/12/07 01:03:00;;;;;;;3.70;0.68;;;4.40;99.90;;;;;;5023940;28;20526;-70
2022/12/07 01:05:25;;;;;;;2.20;0.77;;;4.50;99.90;;;;;;5024966;28;20175;-70
2022/12/07 01:07:51;;;;;;;3.10;0.50;;;4.50;99.90;;;;;;5025090;28;20041;-70
2022/12/07 01:10:17;;;;;;;4.83;1.00;;;4.50;99.90;;;;;;5021864;28;20732;-70
2022/12/07 01:12:42;;;;;;;1.63;0.23;;;4.50;99.90;;;;;;5022925;28;20208;-70
2022/12/07 01:15:09;;;;;;;0.97;0.30;;;4.50;99.90;;;;;;5007132;28;20053;-70
2022/12/07 01:17:34;;;;;;;5.57;0.35;;;4.50;99.90;;;;;;5023338;28;20045;-70
2022/12/07 01:20:00;;;;;;;5.20;1.00;;;4.50;99.90;;;;;;5026561;28;20050;-70
2022/12/07 01:22:27;;;;;;;5.85;0.50;;;4.50;99.90;;;;;;5029358;28;20345;-70
2022/12/07 01:24:52;;;;;;;1.90;0.50;;;4.40;99.90;;;;;;5028217;28;20111;-71
2022/12/07 01:27:19;;;;;;;;;;;4.40;99.90;;;;;;5029615;28;20129;-69
2022/12/07 01:29:44;;;;;;;4.38;0.25;;;4.40;99.90;;;;;;5025181;28;19973;-71
2022/12/07 01:32:10;;;;;;;4.27;0.60;;;4.40;99.90;;;;;;5020710;28;20030;-70
2022/12/07 01:34:36;;;;;;;3.33;0.25;;;4.40;99.90;;;;;;5028552;28;20064;-71
2022/12/07 01:37:02;;;;;;;3.10;1.23;;;4.30;99.90;;;;;;5028648;28;20136;-70
2022/12/07 01:39:27;;;;;;;2.57;0.70;;;4.40;99.90;;;;;;5028677;28;20088;-70
2022/12/07 01:41:53;;;;;;;2.30;0.67;;;4.30;99.90;;;;;;5027515;28;20052;-70
2022/12/07 01:44:29;;;;;;;6.82;0.73;;;4.30;99.90;;;;;;5028053;28;20137;-70
2022/12/07 01:47:00;;;;;;;5.43;0.60;;;4.40;99.90;;;;;;5029019;28;20041;-70
2022/12/07 01:49:28;;;;;;;2.85;0.40;;;4.30;99.90;;;;;;5026592;28;20041;-70
2022/12/07 01:52:18;;;;;;;4.63;0.38;;;4.40;99.90;;;;;;5010648;28;20144;-70
2022/12/07 01:54:45;;;;;;;2.05;0.68;;;4.40;99.90;;;;;;5026448;28;20280;-70
2022/12/07 01:57:13;;;;;;;4.43;0.43;;;4.40;99.90;;;;;;5025566;28;20064;-70
2022/12/07 01:59:39;;;;;;;4.85;0.55;;;4.40;99.90;;;;;;5026317;28;20518;-70
2022/12/07 02:02:11;;;;;;;3.67;0.50;;;4.50;99.90;;;;;;5028257;28;20061;-70
2022/12/07 02:04:37;;;;;;;4.03;0.47;;;4.50;99.90;;;;;;5026803;28;20130;-70
2022/12/07 02:07:04;;;;;;;3.50;0.23;;;4.50;99.90;;;;;;5028470;28;20041;-70
2022/12/07 02:09:30;;;;;;;1.90;0.30;;;4.50;99.90;;;;;;5028021;28;20052;-70
2022/12/07 02:11:56;;;;;;;1.30;0.30;;;4.50;99.90;;;;;;5026525;28;20215;-70
2022/12/07 02:14:22;;;;;;;1.33;0.20;;;4.50;99.90;;;;;;5027245;28;20556;-72
2022/12/07 02:16:55;;;;;;;2.70;0.23;;;4.50;99.90;;;;;;5029436;28;20045;-70
2022/12/07 02:19:45;;;;;;;4.15;0.40;;;4.40;99.90;;;;;;5018474;28;20630;-70
2022/12/07 02:22:48;;;;;;;0.68;0.40;;;4.50;99.90;;;;;;5028841;28;20037;-71
2022/12/07 02:25:22;;;;;;;8.73;1.27;;;4.50;99.90;;;;;;5022179;28;20468;-70
2022/12/07 02:28:24;;;;;;;2.03;0.38;;;4.50;99.90;;;;;;5026068;28;20064;-71
2022/12/07 02:30:53;;;;;;;3.67;0.45;;;4.50;99.90;;;;;;5016418;28;20098;-70
2022/12/07 02:33:31;;;;;;;4.43;0.45;;;4.50;99.90;;;;;;5018891;28;20120;-71
2022/12/07 02:36:27;;;;;;;2.15;0.45;;;4.60;99.90;;;;;;5007199;28;20045;-71
2022/12/07 02:39:14;;;;;;;3.97;0.88;;;4.50;99.90;;;;;;5023037;28;20111;-70
2022/12/07 02:41:43;;;;;;;4.93;1.00;;;4.50;99.90;;;;;;5024948;28;20041;-71
2022/12/07 02:44:13;;;;;;;4.28;0.93;;;4.50;99.90;;;;;;5025239;28;20193;-71
2022/12/07 02:46:49;;;;;;;2.53;0.32;;;4.40;99.90;;;;;;5027151;28;20134;-71
2022/12/07 02:49:34;;;;;;;5.70;0.60;;;4.40;99.90;;;;;;5028144;28;20050;-70
2022/12/07 02:52:00;;;;;;;2.97;0.75;;;4.40;99.90;;;;;;5019587;28;20106;-71
2022/12/07 02:54:26;;;;;;;2.63;0.47;;;4.40;99.90;;;;;;5021647;28;20136;-71
2022/12/07 02:57:13;;;;;;;5.47;0.65;;;4.40;99.90;;;;;;5012994;28;20041;-70
2022/12/07 03:00:05;;;;;;;5.22;0.35;;;4.30;99.90;;;;;;5025997;28;20121;-70
2022/12/07 03:02:46;;;;;;;1.63;0.45;;;4.30;99.90;;;;;;5025721;28;20048;-71
2022/12/07 03:05:23;;;;;;;3.50;0.52;;;4.30;99.90;;;;;;5023111;28;20466;-71
2022/12/07 03:07:49;;;;;;;1.77;0.43;;;4.20;99.90;;;;;;5025424;28;20375;-70
2022/12/07 03:10:19;;;;;;;4.33;0.60;;;4.20;99.90;;;;;;5028231;28;20132;-70
2022/12/07 03:13:06;;;;;;;2.05;0.15;;;4.20;99.90;;;;;;5025855;28;20124;-70
2022/12/07 03:15:58;;;;;;;3.67;0.28;;;4.20;99.90;;;;;;5027422;28;20041;-70
2022/12/07 03:18:27;;;;;;;2.30;0.47;;;4.10;99.90;;;;;;5022955;28;20041;-70
2022/12/07 03:20:58;;;;;;;4.03;0.52;;;4.10;99.90;;;;;;5026006;28;20033;-71
2022/12/07 03:23:26;;;;;;;3.17;0.60;;;4.10;99.90;;;;;;5023278;28;20529;-70
2022/12/07 03:25:57;;;;;;;2.47;0.57;;;4.00;99.90;;;;;;5015764;28;20120;-70
2022/12/07 03:28:26;;;;;;;3.38;0.73;;;4.00;99.90;;;;;;5027361;28;20300;-70
2022/12/07 03:30:59;;;;;;;6.88;1.20;;;3.90;99.90;;;;;;5027461;28;20083;-71
2022/12/07 03:33:32;;;;;;;1.75;0.30;;;3.90;99.90;;;;;;5027469;28;20092;-71
2022/12/07 03:36:08;;;;;;;1.92;0.68;;;3.90;99.90;;;;;;5026198;28;20154;-71
2022/12/07 03:38:42;;;;;;;2.60;0.50;;;3.90;99.90;;;;;;5026775;28;20510;-72
2022/12/07 03:41:25;;;;;;;3.83;0.40;;;3.90;99.90;;;;;;5026137;28;20046;-71
2022/12/07 03:43:53;;;;;;;7.00;0.68;;;3.90;99.90;;;;;;5025796;28;20052;-71
2022/12/07 03:46:28;;;;;;;3.58;0.57;;;3.90;99.90;;;;;;5020969;28;20176;-71
2022/12/07 03:49:21;;;;;;;2.85;0.82;;;3.90;99.90;;;;;;5023663;28;20045;-71
2022/12/07 03:52:14;;;;;;;2.25;0.50;;;3.90;99.90;;;;;;5023571;28;20483;-72
2022/12/07 03:54:46;;;;;;;3.85;0.52;;;3.90;99.90;;;;;;5023652;28;20056;-71
2022/12/07 03:57:13;;;;;;;3.47;0.63;;;3.90;99.90;;;;;;5008787;28;20049;-71
2022/12/07 03:59:39;;;;;;;1.58;0.28;;;4.00;99.90;;;;;;5026495;28;20654;-71
2022/12/07 04:02:07;;;;;;;4.90;0.57;;;4.00;99.90;;;;;;5025418;28;20041;-71
2022/12/07 04:04:34;;;;;;;4.57;0.52;;;4.00;99.90;;;;;;5026674;28;20050;-71
2022/12/07 04:06:59;;;;;;;2.22;0.38;;;4.10;99.90;;;;;;5027490;28;20033;-72
2022/12/07 04:09:25;;;;;;;3.67;0.40;;;4.20;99.90;;;;;;5027191;28;20037;-71
2022/12/07 04:11:51;;;;;;;4.00;0.50;;;4.20;99.90;;;;;;5023947;28;20048;-71
2022/12/07 04:14:19;;;;;;;2.43;0.90;;;4.30;99.90;;;;;;5022199;28;20465;-71
2022/12/07 04:16:45;;;;;;;6.03;0.52;;;4.30;99.90;;;;;;5025542;28;20104;-71
2022/12/07 04:19:11;;;;;;;5.60;1.08;;;4.30;99.90;;;;;;5024974;28;20050;-72
2022/12/07 04:21:37;;;;;;;1.95;0.40;;;4.30;99.90;;;;;;5018477;28;20146;-71
2022/12/07 04:24:04;;;;;;;5.37;1.07;;;4.30;99.90;;;;;;5026127;28;20837;-71
2022/12/07 04:26:29;;;;;;;2.97;0.68;;;4.30;99.90;;;;;;5026689;28;20045;-70
2022/12/07 04:28:55;;;;;;;2.90;0.60;;;4.30;99.90;;;;;;5026812;28;20387;-71
2022/12/07 04:31:21;;;;;;;1.67;0.27;;;4.30;99.90;;;;;;5028538;28;20278;-71
2022/12/07 04:33:46;;;;;;;3.57;0.40;;;4.30;99.90;;;;;;5025600;28;20474;-71
2022/12/07 04:36:12;;;;;;;4.27;0.40;;;4.30;99.90;;;;;;5027392;28;20353;-71
2022/12/07 04:38:38;;;;;;;6.10;0.50;;;4.20;99.90;;;;;;5024261;28;20119;-71
2022/12/07 04:41:07;;;;;;;4.30;0.70;;;4.20;99.90;;;;;;5026844;28;20052;-71
2022/12/07 04:43:33;;;;;;;3.78;0.40;;;4.20;99.90;;;;;;5025867;28;20053;-71
2022/12/07 04:45:59;;;;;;;1.07;0.40;;;4.20;99.90;;;;;;5008155;28;20041;-71
2022/12/07 04:48:24;;;;;;;3.27;0.47;;;4.20;99.90;;;;;;5025556;28;20420;-71
2022/12/07 04:50:50;;;;;;;5.00;0.70;;;4.10;99.90;;;;;;5028627;23;20043;-68
2022/12/07 04:53:16;;;;;;;4.90;0.70;;;4.20;99.90;;;;;;5013848;28;20083;-71
2022/12/07 04:55:41;;;;;;;4.53;0.50;;;4.10;99.90;;;;;;5022539;28;20409;-71
2022/12/07 04:58:07;;;;;;;1.03;0.27;;;4.10;99.90;;;;;;5014107;28;20033;-71
2022/12/07 05:00:33;;;;;;;1.00;0.30;;;4.10;99.90;;;;;;5020733;28;20037;-71
2022/12/07 05:02:58;;;;;;;2.10;0.23;;;4.10;99.90;;;;;;5023329;28;20479;-71
2022/12/07 05:05:24;;;;;;;3.47;0.50;;;4.10;99.90;;;;;;5026599;28;21833;-71
2022/12/07 05:07:50;;;;;;;3.87;0.30;;;4.00;99.90;;;;;;5018691;28;20547;-69
2022/12/07 05:10:16;;;;;;;2.53;0.52;;;4.00;99.90;;;;;;5026026;28;20450;-69
2022/12/07 05:12:42;;;;;;;2.05;0.52;;;4.00;99.90;;;;;;5021491;28;20049;-68
2022/12/07 05:15:08;;;;;;;2.27;0.50;;;3.90;99.90;;;;;;5018995;28;20469;-69
2022/12/07 05:17:33;;;;;;;2.47;0.47;;;3.90;99.90;;;;;;5013020;28;20112;-69
2022/12/07 05:19:59;;;;;;;4.53;0.97;;;3.90;99.90;;;;;;5017398;28;20046;-69
2022/12/07 05:22:27;;;;;;;5.43;0.53;;;3.90;99.90;;;;;;5018505;28;20056;-69
2022/12/07 05:24:54;;;;;;;1.33;0.45;;;3.90;99.90;;;;;;5020473;28;20096;-69
2022/12/07 05:27:20;;;;;;;0.70;0.25;;;3.90;99.90;;;;;;5024171;28;20042;-69
2022/12/07 05:29:46;;;;;;;1.07;0.30;;;3.90;99.90;;;;;;5021126;28;20047;-68
2022/12/07 05:32:11;;;;;;;10.57;0.90;;;3.90;99.90;;;;;;5021175;28;20295;-68
2022/12/07 05:34:37;;;;;;;1.73;0.60;;;3.90;99.90;;;;;;5021890;28;20491;-69
2022/12/07 05:37:03;;;;;;;8.05;1.00;;;3.90;99.90;;;;;;5020376;28;20034;-68
2022/12/07 05:39:29;;;;;;;7.73;1.10;;;3.90;99.90;;;;;;5017016;28;20784;-69
2022/12/07 05:42:12;;;;;;;5.67;0.43;;;3.90;99.90;;;;;;5012009;28;20353;-69
2022/12/07 05:44:46;;;;;;;2.22;0.47;;;3.90;99.90;;;;;;5017093;28;20395;-69
2022/12/07 05:47:13;;;;;;;7.63;1.17;;;4.00;99.90;;;;;;5021100;28;20552;-70
2022/12/07 05:49:39;;;;;;;4.00;0.50;;;4.00;99.90;;;;;;5026133;28;20124;-71
2022/12/07 05:52:05;;;;;;;7.13;0.43;;;4.00;99.90;;;;;;5020183;28;20128;-70
2022/12/07 05:54:31;;;;;;;9.05;0.90;;;4.10;99.90;;;;;;5034576;28;20398;-70
2022/12/07 05:56:56;;;;;;;2.13;0.53;;;4.10;99.90;;;;;;5019332;28;20046;-70
2022/12/07 05:59:22;;;;;;;3.93;0.47;;;4.10;99.90;;;;;;5013396;28;20038;-70
2022/12/07 06:01:59;;;;;;;5.70;0.80;;;4.10;99.90;;;;;;5013242;28;20685;-69
2022/12/07 06:04:28;;;;;;;3.15;0.70;;;4.10;99.90;;;;;;5037395;28;20124;-69
2022/12/07 06:06:53;;;;;;;3.58;0.52;;;4.10;99.90;;;;;;5023801;28;20395;-69
2022/12/07 06:09:20;;;;;;;1.73;0.53;;;4.00;99.90;;;;;;5019377;28;20049;-69
2022/12/07 06:14:30;;;;;;;3.78;0.70;;;4.00;99.90;;;;;;5014465;28;19925;-69
2022/12/07 06:16:56;;;;;;;4.90;0.63;;;4.10;99.90;;;;;;5019433;28;20407;-70
2022/12/07 06:19:21;;;;;;;3.10;0.70;;;4.10;99.90;;;;;;5020567;28;20411;-69
2022/12/07 06:21:47;;;;;;;2.80;0.80;;;4.10;99.90;;;;;;5023175;28;20452;-73
2022/12/07 06:24:15;;;;;;;3.00;0.40;;;4.10;99.90;;;;;;5015715;28;20380;-70
2022/12/07 06:26:41;;;;;;;3.58;0.47;;;4.10;99.90;;;;;;5023910;28;20087;-71
2022/12/07 06:29:07;;;;;;;2.90;0.60;;;4.10;99.90;;;;;;5016867;28;20061;-71
2022/12/07 06:31:32;;;;;;;0.53;0.40;;;4.10;99.90;;;;;;5019996;28;20061;-69
2022/12/07 06:34:09;;;;;;;2.93;0.50;;;4.20;99.90;;;;;;5017625;28;20057;-69
2022/12/07 06:36:35;;;;;;;3.05;0.82;;;4.20;99.90;;;;;;5014329;28;20484;-69
2022/12/07 06:39:02;;;;;;;1.50;0.77;;;4.20;99.90;;;;;;5020094;28;20103;-69
2022/12/07 06:41:28;;;;;;;4.70;1.40;;;4.10;99.90;;;;;;5010926;28;20037;-69
2022/12/07 06:43:53;;;;;;;3.93;0.83;;;4.10;99.90;;;;;;5024882;28;20545;-67
2022/12/07 06:46:19;;;;;;;2.60;1.00;;;4.00;99.90;;;;;;5024083;28;20036;-66
2022/12/07 06:48:45;;;;;;;4.43;1.25;;;4.00;99.90;;;;;;5025969;28;20485;-66
2022/12/07 06:51:11;;;;;;;3.17;1.10;;;4.00;99.90;;;;;;5022854;28;20116;-66
2022/12/07 06:53:37;;;;;;;7.00;0.80;;;3.90;99.90;;;;;;5016061;28;20046;-67
2022/12/07 06:56:03;;;;;;;6.60;0.63;;;4.00;99.90;;;;;;5024882;28;20479;-67
2022/12/07 06:58:29;;;;;;;;;;;4.00;99.90;;;;;;5019880;28;20104;-66
2022/12/07 07:00:55;;;;;;;7.60;1.15;;;4.00;99.90;;;;;;5020577;28;20437;-67
2022/12/07 07:03:20;;;;;;;4.97;1.13;;;4.00;99.90;;;;;;5016463;28;20108;-66
2022/12/07 07:05:46;;;;;;;3.97;0.63;;;4.00;99.90;;;;;;5021289;28;21040;-66
2022/12/07 07:08:12;;;;;;;2.77;0.53;;;3.90;99.90;;;;;;5026229;28;20052;-67
2022/12/07 07:10:38;;;;;;;3.30;0.37;;;4.00;99.90;;;;;;5020208;28;20042;-66
2022/12/07 07:13:04;;;;;;;2.83;0.70;;;4.00;99.90;;;;;;5010462;28;20047;-66
2022/12/07 07:15:31;;;;;;;4.32;0.85;;;4.00;99.90;;;;;;5026371;28;20499;-66
2022/12/07 07:17:57;;;;;;;2.65;0.80;;;4.00;99.90;;;;;;5017314;28;20080;-66
2022/12/07 07:20:22;;;;;;;4.93;0.90;;;4.00;99.90;;;;;;5024486;28;20092;-67
2022/12/07 07:22:49;;;;;;;8.60;1.67;;;4.00;99.90;;;;;;5021135;28;20156;-66
2022/12/07 07:25:21;;;;;;;3.58;1.00;;;4.00;99.90;;;;;;5020179;28;20045;-66
2022/12/07 07:27:47;;;;;;;3.65;1.13;;;4.00;99.90;;;;;;5026821;28;20068;-66
2022/12/07 07:30:13;;;;;;;9.70;1.10;;;4.00;99.90;;;;;;5022788;28;20038;-66
2022/12/07 07:32:39;;;;;;;10.13;0.87;;;4.00;99.90;;;;;;5021762;28;20041;-66
2022/12/07 07:35:05;;;;;;;4.00;0.90;;;3.90;99.90;;;;;;5020514;28;20366;-67
2022/12/07 07:37:30;;;;;;;4.88;1.40;;;3.90;99.90;;;;;;5020970;28;20033;-66
2022/12/07 07:39:56;;;;;;;5.10;1.17;;;3.90;99.90;;;;;;5014584;28;20045;-67
2022/12/07 07:42:22;;;;;;;12.80;1.67;;;3.90;99.90;;;;;;5016712;28;20128;-66
2022/12/07 07:44:47;;;;;;;5.77;1.23;;;3.80;99.90;;;;;;5019707;28;20216;-67
2022/12/07 07:47:13;;;;;;;4.03;0.97;;;3.80;99.90;;;;;;5019574;28;20045;-68
2022/12/07 07:49:39;;;;;;;1.23;0.70;;;3.80;99.90;;;;;;5019041;28;20503;-67
2022/12/07 07:52:05;;;;;;;8.10;1.53;;;3.70;99.90;;;;;;5020246;28;20064;-67
2022/12/07 07:54:31;;;;;;;11.45;1.63;;;3.80;99.90;;;;;;5015589;28;20045;-67
2022/12/07 07:56:57;;;;;;;6.13;0.90;;;3.80;99.90;;;;;;5014497;28;20514;-67
2022/12/07 07:59:24;;;;;;;2.08;0.90;;;3.80;99.90;;;;;;5010737;28;20503;-67
2022/12/07 08:01:50;;;;;;;7.70;1.10;;;3.80;99.90;;;;;;5013196;28;20216;-67
2022/12/07 08:04:15;;;;;;;4.00;1.33;;;3.90;99.90;;;;;;5020979;28;20662;-67
2022/12/07 08:06:42;;;;;;;7.70;1.38;;;3.90;99.90;;;;;;5016847;28;20171;-67
2022/12/07 08:09:08;;;;;;;2.83;1.00;;;3.90;99.90;;;;;;5014885;28;20077;-67
2022/12/07 08:11:34;;;;;;;13.98;0.95;;;3.90;99.90;;;;;;5024832;28;20132;-67
2022/12/07 08:14:00;;;;;;;8.05;1.33;;;3.90;99.90;;;;;;5023911;28;20041;-67
2022/12/07 08:16:25;;;;;;;2.53;0.60;;;3.90;99.90;;;;;;5023560;28;20045;-67
2022/12/07 08:18:51;;;;;;;3.03;0.70;;;3.90;99.90;;;;;;5015761;28;20037;-67
2022/12/07 08:21:17;;;;;;;6.47;0.57;;;3.90;99.90;;;;;;5014450;28;20029;-67
2022/12/07 08:23:42;;;;;;;7.37;1.00;;;3.80;99.90;;;;;;5031350;28;20089;-67
2022/12/07 08:26:11;;;;;;;3.57;0.90;;;3.90;99.90;;;;;;5018317;28;20055;-67
2022/12/07 08:28:37;;;;;;;4.90;1.15;;;3.80;99.90;;;;;;5021966;28;20365;-67
2022/12/07 08:31:12;;;;;;;4.53;0.90;;;3.80;99.90;;;;;;5018656;28;20120;-67
2022/12/07 08:33:38;;;;;;;4.43;1.20;;;3.80;99.90;;;;;;5027814;28;20046;-67
2022/12/07 08:36:08;;;;;;;6.82;1.98;;;3.80;99.90;;;;;;5027504;28;20045;-67
2022/12/07 08:38:38;;;;;;;13.55;1.23;;;3.90;99.90;;;;;;5024985;28;20052;-67
2022/12/07 08:41:04;;;;;;;7.18;1.00;;;3.90;99.90;;;;;;5019511;28;20126;-67
2022/12/07 08:43:30;;;;;;;6.80;1.38;;;4.00;99.90;;;;;;5022852;28;20045;-68
2022/12/07 08:46:05;;;;;;;10.00;2.03;;;4.00;99.90;;;;;;5022315;28;20179;-67
2022/12/07 08:48:32;;;;;;;5.88;1.73;;;4.00;99.90;;;;;;5030517;28;20493;-67
2022/12/07 08:50:58;;;;;;;8.05;1.88;;;4.10;99.90;;;;;;5024487;28;20048;-67
2022/12/07 08:53:24;;;;;;;8.05;1.30;;;4.10;99.90;;;;;;5029331;28;20414;-67
2022/12/07 08:55:50;;;;;;;6.38;1.38;;;4.20;99.90;;;;;;5024363;28;20483;-67
2022/12/07 08:58:16;;;;;;;4.38;1.20;;;4.20;99.90;;;;;;5026732;28;20043;-67
2022/12/07 09:00:41;;;;;;;3.93;0.80;;;4.20;99.90;;;;;;5027860;28;20368;-68
2022/12/07 09:03:07;;;;;;;4.27;1.30;;;4.30;99.90;;;;;;5019648;28;20129;-67
2022/12/07 09:05:34;;;;;;;9.27;1.20;;;4.30;99.90;;;;;;5028088;28;20534;-67
2022/12/07 09:08:01;;;;;;;4.88;0.95;;;4.20;99.90;;;;;;5030456;28;20045;-67
2022/12/07 09:10:28;;;;;;;3.55;0.80;;;4.30;99.90;;;;;;5028137;28;20458;-67
2022/12/07 09:12:54;;;;;;;6.18;0.70;;;4.30;99.90;;;;;;5028461;28;20041;-67
2022/12/07 09:15:19;;;;;;;5.03;0.90;;;4.30;99.90;;;;;;5021951;28;20048;-67
2022/12/07 09:17:45;;;;;;;1.43;0.90;;;4.30;99.90;;;;;;5029083;28;20119;-67
2022/12/07 09:20:11;;;;;;;1.70;0.53;;;4.30;99.90;;;;;;5023688;28;20044;-67
2022/12/07 09:22:37;;;;;;;5.15;0.80;;;4.30;99.90;;;;;;5026761;28;20137;-67
2022/12/07 09:25:04;;;;;;;2.37;0.73;;;4.30;99.90;;;;;;5021951;28;20170;-67
2022/12/07 09:27:30;;;;;;;3.80;0.77;;;4.30;99.90;;;;;;5028484;28;20477;-67
2022/12/07 09:29:56;;;;;;;4.22;0.88;;;4.30;99.90;;;;;;5006962;28;20601;-66
2022/12/07 09:32:22;;;;;;;8.47;1.33;;;4.30;99.90;;;;;;5030688;28;20199;-67
2022/12/07 09:34:47;;;;;;;8.25;1.33;;;4.30;99.90;;;;;;5020850;28;20065;-67
2022/12/07 09:37:13;;;;;;;3.53;0.40;;;4.30;99.90;;;;;;5020104;28;20531;-67
2022/12/07 09:39:39;;;;;;;4.37;0.80;;;4.40;99.90;;;;;;5020633;28;20041;-67
2022/12/07 09:42:07;;;;;;;5.82;0.70;;;4.40;99.90;;;;;;5020736;28;20379;-67
2022/12/07 09:44:34;;;;;;;2.85;0.80;;;4.50;99.90;;;;;;5023444;28;20553;-67
2022/12/07 09:47:01;;;;;;;4.53;0.82;;;4.50;99.90;;;;;;5022825;28;20044;-67
2022/12/07 09:49:30;;;;;;;6.32;1.25;;;4.70;99.90;;;;;;5020737;28;20045;-70
2022/12/07 09:52:08;;;;;;;7.85;1.38;;;4.80;99.90;;;;;;5023260;28;20053;-69
2022/12/07 09:54:38;;;;;;;3.50;1.10;;;4.90;99.90;;;;;;5017185;28;20513;-69
2022/12/07 09:57:03;;;;;;;6.82;0.80;;;5.00;99.90;;;;;;5024992;28;20037;-70
2022/12/07 09:59:29;;;;;;;2.90;0.57;;;5.00;99.90;;;;;;5019726;28;20168;-69
2022/12/07 10:01:55;;;;;;;1.60;0.57;;;5.10;99.90;;;;;;5019552;28;20076;-69
2022/12/07 10:04:24;;;;;;;5.93;0.83;;;5.10;99.90;;;;;;5017455;28;20298;-69
2022/12/07 10:06:53;;;;;;;4.55;0.88;;;5.10;99.90;;;;;;5023417;28;20350;-69
2022/12/07 10:09:21;;;;;;;6.75;0.95;;;5.10;99.90;;;;;;5021107;28;20040;-69
2022/12/07 10:12:01;;;;;;;4.25;0.90;;;5.10;99.90;;;;;;5019058;28;20518;-69
2022/12/07 10:14:30;;;;;;;3.90;0.98;;;5.10;99.90;;;;;;5021276;28;20116;-69
2022/12/07 10:16:56;;;;;;;5.90;1.02;;;5.20;99.90;;;;;;5022111;28;20064;-69
2022/12/07 10:19:24;;;;;;;5.10;1.15;;;5.20;99.90;;;;;;5024391;28;20130;-69
2022/12/07 10:22:04;;;;;;;3.70;0.60;;;5.30;99.90;;;;;;5021544;28;20034;-68
2022/12/07 10:24:30;;;;;;;2.97;1.00;;;5.30;99.90;;;;;;5021022;28;20041;-69
2022/12/07 10:26:56;;;;;;;5.72;0.85;;;5.40;99.90;;;;;;5024681;28;20372;-68
2022/12/07 10:29:32;;;;;;;3.20;0.65;;;5.50;99.90;;;;;;5018505;28;20119;-68
2022/12/07 10:32:04;;;;;;;3.45;0.80;;;5.50;99.90;;;;;;5015696;28;20082;-68
2022/12/07 10:34:35;;;;;;;2.13;0.60;;;5.60;99.90;;;;;;5018356;28;20095;-68
2022/12/07 10:37:13;;;;;;;5.30;1.50;;;5.60;99.90;;;;;;5021974;28;20029;-68
2022/12/07 10:39:54;;;;;;;4.13;1.45;;;5.70;99.90;;;;;;5006033;28;20042;-68
2022/12/07 10:42:24;;;;;;;5.25;1.30;;;5.80;99.90;;;;;;5016612;28;20391;-68
2022/12/07 10:45:26;;;;;;;2.50;0.50;;;5.90;99.90;;;;;;5014979;28;20111;-68
2022/12/07 10:48:09;;;;;;;5.10;0.50;;;6.00;99.90;;;;;;4982614;28;20451;-68
2022/12/07 10:50:49;;;;;;;4.63;0.60;;;6.10;99.90;;;;;;5031109;23;20414;-72
2022/12/07 10:53:37;;;;;;;9.25;0.43;;;6.20;99.90;;;;;;5014812;28;20045;-71
2022/12/07 10:56:39;;;;;;;5.10;0.75;;;6.30;99.90;;;;;;5020925;28;20142;-71
2022/12/07 10:59:16;;;;;;;3.78;0.40;;;6.20;99.90;;;;;;5024164;28;20207;-71
2022/12/07 11:01:46;;;;;;;3.22;0.60;;;6.20;99.90;;;;;;5019056;28;20052;-72
2022/12/07 11:04:33;;;;;;;1.13;0.45;;;6.20;99.90;;;;;;5018433;28;20045;-71
2022/12/07 11:07:58;;;;;;;0.68;0.20;;;6.10;99.90;;;;;;5020838;28;20309;-72
2022/12/07 11:10:42;;;;;;;1.63;0.28;;;6.10;99.90;;;;;;4931474;29;20121;-72
2022/12/07 11:13:33;;;;;;;7.32;0.50;;;6.00;99.90;;;;;;4921566;29;20569;-72
2022/12/07 11:16:07;;;;;;;3.00;0.82;;;6.00;99.90;;;;;;5012725;28;20052;-72
2022/12/07 11:18:41;;;;;;;3.40;0.85;;;6.00;99.90;;;;;;5020495;28;20521;-71
2022/12/07 11:21:19;;;;;;;2.47;0.60;;;5.90;99.90;;;;;;5021183;28;20053;-72
2022/12/07 11:24:00;;;;;;;5.38;1.02;;;5.90;99.90;;;;;;5022007;28;20079;-72
2022/12/07 11:26:38;;;;;;;1.95;0.55;;;5.90;99.90;;;;;;5005289;28;20042;-72
2022/12/07 11:29:16;;;;;;;1.70;0.50;;;5.90;99.90;;;;;;5018597;28;20472;-71
2022/12/07 11:32:06;;;;;;;1.58;0.22;;;5.90;99.90;;;;;;5018448;28;20076;-72
2022/12/07 11:34:35;;;;;;;0.80;0.40;;;5.80;99.90;;;;;;5022152;28;20054;-72
2022/12/07 11:37:04;;;;;;;1.27;0.45;;;5.80;99.90;;;;;;5019876;28;20103;-72
2022/12/07 11:39:39;;;;;;;4.72;0.73;;;5.90;99.90;;;;;;5021062;28;21224;-72
2022/12/07 11:42:25;;;;;;;2.35;0.80;;;6.00;99.90;;;;;;5017829;28;20069;-71
2022/12/07 11:45:21;;;;;;;6.88;0.73;;;6.20;99.90;;;;;;5039679;28;20519;-75
2022/12/07 11:48:45;;;;;;;4.20;0.47;;;6.30;99.90;;;;;;5005671;28;20049;-72
2022/12/07 11:51:12;;;;;;;2.05;0.50;;;6.50;99.90;;;;;;4938464;29;20039;-72
2022/12/07 11:53:54;;;;;;;2.95;0.65;;;6.50;99.90;;;;;;4999493;28;20049;-72
2022/12/07 11:56:21;;;;;;;2.25;0.82;;;6.50;99.90;;;;;;5021845;28;20075;-72
2022/12/07 11:58:47;;;;;;;2.47;0.52;;;6.50;99.90;;;;;;5023678;28;20113;-72
2022/12/07 12:01:13;;;;;;;1.17;0.43;;;6.40;99.90;;;;;;5022192;28;20112;-71
2022/12/07 12:03:46;;;;;;;2.67;0.60;;;6.40;99.90;;;;;;5017814;28;20395;-71
2022/12/07 12:06:12;;;;;;;1.77;0.60;;;6.10;99.90;;;;;;5019752;28;20049;-72
2022/12/07 12:08:57;;;;;;;1.20;0.60;;;6.00;99.90;;;;;;5021119;28;20466;-72
2022/12/07 12:11:35;;;;;;;2.28;0.90;;;5.70;99.90;;;;;;5020033;28;20055;-71
2022/12/07 12:14:19;;;;;;;2.22;0.20;;;5.60;99.90;;;;;;5020684;28;20122;-71
2022/12/07 12:17:12;;;;;;;1.38;0.60;;;5.40;99.90;;;;;;5022118;28;20111;-71
2022/12/07 12:20:03;;;;;;;1.50;0.40;;;5.20;99.90;;;;;;5023170;28;20038;-72
2022/12/07 12:22:39;;;;;;;1.50;0.30;;;5.10;99.90;;;;;;5015176;28;20506;-71
2022/12/07 12:25:17;;;;;;;2.90;0.32;;;5.00;99.90;;;;;;5022619;28;20147;-72
2022/12/07 12:27:47;;;;;;;5.28;0.55;;;4.90;99.90;;;;;;5011006;28;20037;-72
2022/12/07 12:30:37;;;;;;;1.40;0.47;;;4.90;99.90;;;;;;5019248;28;20487;-71
2022/12/07 12:33:25;;;;;;;3.80;0.70;;;4.90;99.90;;;;;;5017504;28;20509;-72
2022/12/07 12:36:22;;;;;;;4.70;0.70;;;5.00;99.90;;;;;;5023505;28;20084;-72
2022/12/07 12:38:54;;;;;;;3.08;0.60;;;5.00;99.90;;;;;;5008775;28;20049;-72
2022/12/07 12:44:15;;;;;;;4.07;0.70;;;5.00;99.90;;;;;;5022171;28;20044;-72
2022/12/07 12:46:54;;;;;;;2.25;0.60;;;5.10;99.90;;;;;;5036028;28;20081;-72
2022/12/07 12:49:19;;;;;;;3.30;0.50;;;5.10;99.90;;;;;;5020471;28;20041;-72
2022/12/07 12:51:48;;;;;;;2.23;0.70;;;5.20;99.90;;;;;;5017479;28;20477;-72
2022/12/07 12:54:45;;;;;;;1.85;0.35;;;5.30;99.90;;;;;;5019476;28;20517;-72
2022/12/07 12:57:31;;;;;;;5.43;0.60;;;5.30;99.90;;;;;;5002904;28;20041;-72
2022/12/07 12:59:58;;;;;;;3.65;0.70;;;5.40;99.90;;;;;;5002707;28;20081;-72
2022/12/07 13:02:37;;;;;;;2.88;0.47;;;5.30;99.90;;;;;;5016560;28;20038;-71
2022/12/07 13:05:12;;;;;;;2.75;0.47;;;5.40;99.90;;;;;;5016299;28;20343;-72
2022/12/07 13:07:47;;;;;;;1.45;0.40;;;5.40;99.90;;;;;;5023076;28;20048;-71
2022/12/07 13:10:30;;;;;;;3.63;0.80;;;5.30;99.90;;;;;;5021392;28;20122;-72
2022/12/07 13:13:00;;;;;;;2.40;0.60;;;5.30;99.90;;;;;;5021860;28;20064;-72
2022/12/07 13:15:41;;;;;;;2.00;0.43;;;5.30;99.90;;;;;;5021320;28;20037;-72
2022/12/07 13:18:28;;;;;;;1.38;0.50;;;5.30;99.90;;;;;;5025331;28;20047;-72
2022/12/07 13:21:09;;;;;;;1.92;0.85;;;5.30;99.90;;;;;;5020834;28;20041;-72
2022/12/07 13:23:37;;;;;;;3.70;1.05;;;5.30;99.90;;;;;;5023715;28;20060;-71